Bentonville, AR (72712)

11:22 PM CST on December 21, 2014 (GMT -0600)
KARBENTO2 | Change Station
CLOSE
Current Station
Personal Weather Station
Location: Bentonville, AR
Elevation: 1289 ft
Nearby Weather Stations

Elev 1289 ft 36.36 °N, 94.20 °W | Updated 2 seconds ago

Overcast
Overcast
43.0 °F
Feels Like 38 °F
N
7.8
Wind Variable Wind from ESE
Gusts 8.1 mph

Today
High -- | Low -- °F
--% Chance of Precip.
Yesterday
High -- | Low -- °F
Precip. -- in
7:24 AM 5:05 PM
New Moon, 0% visible
Pressure 29.80 in
Visibility 3.0 miles
Clouds Few 600 ft
Overcast 1200 ft
Windchill 38 °F
Dew Point 43 °F
Humidity 100%
Rainfall 0.00 in
Snow Depth Not available.
UV 0 out of 12
Pollen 6.40 out of 12
Air Quality Not available.
Flu Activity Not available.
METAR KVBT 220515Z AUTO 16005KT 3SM FEW006 OVC012 06/04 A2980 RMK AO1

More Conditions Fewer Conditions

Pressure 29.80 in
Visibility 3.0 miles
Clouds Few 600 ft
Overcast 1200 ft
Windchill 38 °F
Dew Point 43 °F
Humidity 100%
Rainfall 0.00 in
Snow Depth Not available.
UV 0 out of 12
Pollen 6.40 out of 12
Air Quality Not available.
Flu Activity Not available.
METAR KVBT 220515Z AUTO 16005KT 3SM FEW006 OVC012 06/04 A2980 RMK AO1

More Conditions Fewer Conditions

Nowcast | as of 9:58 PM CST on December 21, 2014

At 9:57 PM...National Weather Service Doppler radars continued to detect a large area of drizzle moving across eastern Oklahoma and into western Arkansas. Light rain or drizzle was being reported near Okmulgee...Sallisaw...and Claremore. All this activity was moving toward the northeast...around 25 miles per hour. Through 12:00 am...light drizzle will continue across northeast Oklahoma and western Arkansas. Precipitation amounts will be very light...with between a trace to a couple hundredths of an inch expected. With temperatures above freezing...minor visibility reductions in the heaviest drizzle should be the only travel impacts.

×

10-Day Weather Forecast

Almanac

Astronomy

Dec. 21, 2014 Rise Set
Actual Time
Civil Twilight
Nautical Twilight
Astronomical Twilight
Moon
Length of Visible Light
Length of Day
Tomorrow will be .
, % of the Moon is Illuminated

Today's Extremes

State Highs State Lows

Community

WunderPhotos

Upload Photos

1,779,549 photos uploaded!

WunderBlogs® & News

Nearby

Air Quality

  Air Quality AQ Index Pollutant
Not available.

Snow Depth

Station Depth Elevation

Earthquake Activity

City Distance Mag. Time & Date
Minimum magnitude displayed is 2.5.

Coastal Water Temperatures

Place Temperature

Nearby Weather Stations